sensor_id;sensor_type;location;lat;lon;timestamp;pressure;altitude;pressure_sealevel;temperature;humidity
7309;BME280;3695;53.330;9.876;2023-12-04T00:00:26;100891.75;;;2.32;64.04
7309;BME280;3695;53.330;9.876;2023-12-04T00:02:53;100895.84;;;2.43;64.53
7309;BME280;3695;53.330;9.876;2023-12-04T00:05:20;100894.25;;;2.30;64.34
7309;BME280;3695;53.330;9.876;2023-12-04T00:07:46;100888.63;;;2.23;64.38
7309;BME280;3695;53.330;9.876;2023-12-04T00:10:13;100899.06;;;2.24;64.30
7309;BME280;3695;53.330;9.876;2023-12-04T00:12:39;100892.19;;;2.10;64.16
7309;BME280;3695;53.330;9.876;2023-12-04T00:15:07;100895.94;;;2.15;63.98
7309;BME280;3695;53.330;9.876;2023-12-04T00:17:35;100886.72;;;2.20;63.96
7309;BME280;3695;53.330;9.876;2023-12-04T00:20:05;100883.59;;;1.96;64.00
7309;BME280;3695;53.330;9.876;2023-12-04T00:22:32;100881.47;;;2.33;64.13
7309;BME280;3695;53.330;9.876;2023-12-04T00:24:59;100875.56;;;1.92;64.19
7309;BME280;3695;53.330;9.876;2023-12-04T00:27:25;100871.69;;;2.00;63.74
7309;BME280;3695;53.330;9.876;2023-12-04T00:29:53;100877.13;;;1.90;64.11
7309;BME280;3695;53.330;9.876;2023-12-04T00:32:19;100870.91;;;2.01;64.24
7309;BME280;3695;53.330;9.876;2023-12-04T00:34:47;100867.56;;;1.89;64.12
7309;BME280;3695;53.330;9.876;2023-12-04T00:37:13;100859.28;;;1.94;64.21
7309;BME280;3695;53.330;9.876;2023-12-04T00:39:40;100862.28;;;1.73;64.39
7309;BME280;3695;53.330;9.876;2023-12-04T00:42:06;100850.13;;;1.72;64.27
7309;BME280;3695;53.330;9.876;2023-12-04T00:44:33;100855.78;;;1.79;64.35
7309;BME280;3695;53.330;9.876;2023-12-04T00:46:59;100858.84;;;1.87;63.92
7309;BME280;3695;53.330;9.876;2023-12-04T00:49:26;100851.50;;;1.94;64.17
7309;BME280;3695;53.330;9.876;2023-12-04T00:51:54;100855.25;;;1.85;64.03
7309;BME280;3695;53.330;9.876;2023-12-04T00:54:21;100857.53;;;1.66;64.47
7309;BME280;3695;53.330;9.876;2023-12-04T00:56:47;100848.91;;;1.80;64.38
7309;BME280;3695;53.330;9.876;2023-12-04T00:59:14;100853.78;;;1.75;63.90
7309;BME280;3695;53.330;9.876;2023-12-04T01:01:40;100841.44;;;1.56;64.27
7309;BME280;3695;53.330;9.876;2023-12-04T01:04:08;100845.47;;;1.66;64.65
7309;BME280;3695;53.330;9.876;2023-12-04T01:06:35;100840.09;;;1.63;64.31
7309;BME280;3695;53.330;9.876;2023-12-04T01:09:03;100834.50;;;1.70;63.86
7309;BME280;3695;53.330;9.876;2023-12-04T01:11:29;100833.75;;;1.58;64.17
7309;BME280;3695;53.330;9.876;2023-12-04T01:13:56;100832.25;;;1.76;64.32
7309;BME280;3695;53.330;9.876;2023-12-04T01:16:23;100840.66;;;1.72;64.25
7309;BME280;3695;53.330;9.876;2023-12-04T01:18:49;100835.84;;;1.78;63.97
7309;BME280;3695;53.330;9.876;2023-12-04T01:21:16;100840.94;;;1.77;64.12
7309;BME280;3695;53.330;9.876;2023-12-04T01:23:44;100833.06;;;1.75;63.70
7309;BME280;3695;53.330;9.876;2023-12-04T01:26:12;100834.84;;;1.76;63.98
7309;BME280;3695;53.330;9.876;2023-12-04T01:28:38;100828.97;;;1.79;63.99
7309;BME280;3695;53.330;9.876;2023-12-04T01:31:06;100821.47;;;1.69;63.57
7309;BME280;3695;53.330;9.876;2023-12-04T01:33:32;100825.22;;;1.74;63.62
7309;BME280;3695;53.330;9.876;2023-12-04T01:35:59;100817.63;;;1.77;63.77
7309;BME280;3695;53.330;9.876;2023-12-04T01:38:25;100821.47;;;1.69;63.60
7309;BME280;3695;53.330;9.876;2023-12-04T01:40:52;100825.03;;;1.71;64.00
7309;BME280;3695;53.330;9.876;2023-12-04T01:43:20;100818.34;;;1.74;63.48
7309;BME280;3695;53.330;9.876;2023-12-04T01:45:46;100812.88;;;1.70;63.52
7309;BME280;3695;53.330;9.876;2023-12-04T01:48:13;100810.97;;;1.52;63.63
7309;BME280;3695;53.330;9.876;2023-12-04T01:50:40;100801.44;;;1.66;63.91
7309;BME280;3695;53.330;9.876;2023-12-04T01:53:07;100807.53;;;1.81;63.94
7309;BME280;3695;53.330;9.876;2023-12-04T01:55:34;100799.47;;;1.77;63.47
7309;BME280;3695;53.330;9.876;2023-12-04T01:58:06;100796.66;;;1.87;63.49
7309;BME280;3695;53.330;9.876;2023-12-04T02:00:34;100798.22;;;1.70;63.03
7309;BME280;3695;53.330;9.876;2023-12-04T02:03:01;100793.41;;;1.76;63.65
7309;BME280;3695;53.330;9.876;2023-12-04T02:05:29;100789.66;;;2.00;63.23
7309;BME280;3695;53.330;9.876;2023-12-04T02:07:55;100789.47;;;1.83;63.18
7309;BME280;3695;53.330;9.876;2023-12-04T02:10:21;100788.59;;;1.97;63.31
7309;BME280;3695;53.330;9.876;2023-12-04T02:12:48;100774.13;;;1.71;63.31
7309;BME280;3695;53.330;9.876;2023-12-04T02:15:14;100771.97;;;1.64;63.66
7309;BME280;3695;53.330;9.876;2023-12-04T02:17:43;100766.78;;;1.93;63.36
7309;BME280;3695;53.330;9.876;2023-12-04T02:20:12;100760.47;;;1.74;63.33
7309;BME280;3695;53.330;9.876;2023-12-04T02:22:39;100755.25;;;2.03;63.17
7309;BME280;3695;53.330;9.876;2023-12-04T02:25:08;100744.91;;;2.03;63.49
7309;BME280;3695;53.330;9.876;2023-12-04T02:27:40;100747.59;;;2.04;62.85
7309;BME280;3695;53.330;9.876;2023-12-04T02:30:10;100740.69;;;1.76;62.89
7309;BME280;3695;53.330;9.876;2023-12-04T02:32:43;100736.94;;;2.00;63.18
7309;BME280;3695;53.330;9.876;2023-12-04T02:35:11;100740.97;;;1.95;63.13
7309;BME280;3695;53.330;9.876;2023-12-04T02:37:40;100736.13;;;2.01;63.22
7309;BME280;3695;53.330;9.876;2023-12-04T02:40:10;100729.16;;;2.00;63.08
7309;BME280;3695;53.330;9.876;2023-12-04T02:42:37;100723.75;;;1.81;62.92
7309;BME280;3695;53.330;9.876;2023-12-04T02:45:04;100719.72;;;1.86;62.88
7309;BME280;3695;53.330;9.876;2023-12-04T02:47:31;100728.66;;;1.61;63.02
7309;BME280;3695;53.330;9.876;2023-12-04T02:49:58;100725.31;;;1.93;63.30
7309;BME280;3695;53.330;9.876;2023-12-04T02:52:24;100715.28;;;1.69;63.03
7309;BME280;3695;53.330;9.876;2023-12-04T02:54:51;100716.59;;;1.91;63.23
7309;BME280;3695;53.330;9.876;2023-12-04T02:57:19;100710.59;;;1.78;62.69
7309;BME280;3695;53.330;9.876;2023-12-04T02:59:45;100695.50;;;1.85;63.39
7309;BME280;3695;53.330;9.876;2023-12-04T03:02:12;100695.75;;;2.04;63.46
7309;BME280;3695;53.330;9.876;2023-12-04T03:04:38;100693.66;;;2.14;63.17
7309;BME280;3695;53.330;9.876;2023-12-04T03:07:05;100685.06;;;1.84;62.86
7309;BME280;3695;53.330;9.876;2023-12-04T03:09:31;100687.28;;;1.92;62.80
7309;BME280;3695;53.330;9.876;2023-12-04T03:11:58;100681.34;;;1.49;63.03
7309;BME280;3695;53.330;9.876;2023-12-04T03:14:26;100684.41;;;2.02;63.40
7309;BME280;3695;53.330;9.876;2023-12-04T03:16:52;100673.69;;;1.82;62.96
7309;BME280;3695;53.330;9.876;2023-12-04T03:19:19;100675.47;;;1.83;63.11
7309;BME280;3695;53.330;9.876;2023-12-04T03:21:45;100674.59;;;1.82;62.71
7309;BME280;3695;53.330;9.876;2023-12-04T03:24:12;100674.97;;;1.74;62.87
7309;BME280;3695;53.330;9.876;2023-12-04T03:26:38;100670.69;;;1.74;63.44
7309;BME280;3695;53.330;9.876;2023-12-04T03:29:05;100664.78;;;1.77;63.72
7309;BME280;3695;53.330;9.876;2023-12-04T03:31:32;100665.56;;;1.76;62.93
7309;BME280;3695;53.330;9.876;2023-12-04T03:33:59;100662.09;;;1.75;63.29
7309;BME280;3695;53.330;9.876;2023-12-04T03:36:26;100661.56;;;1.81;62.98
7309;BME280;3695;53.330;9.876;2023-12-04T03:38:52;100657.78;;;1.90;63.72
7309;BME280;3695;53.330;9.876;2023-12-04T03:41:19;100656.53;;;1.98;63.54
7309;BME280;3695;53.330;9.876;2023-12-04T03:43:47;100646.53;;;1.90;63.04
7309;BME280;3695;53.330;9.876;2023-12-04T03:46:13;100651.84;;;2.08;63.19
7309;BME280;3695;53.330;9.876;2023-12-04T03:48:41;100644.66;;;2.18;63.08
7309;BME280;3695;53.330;9.876;2023-12-04T03:51:08;100636.72;;;2.15;63.17
7309;BME280;3695;53.330;9.876;2023-12-04T03:53:35;100638.78;;;1.75;62.83
7309;BME280;3695;53.330;9.876;2023-12-04T03:56:01;100635.91;;;1.85;62.98
7309;BME280;3695;53.330;9.876;2023-12-04T03:58:28;100630.28;;;1.92;63.63
7309;BME280;3695;53.330;9.876;2023-12-04T04:00:54;100630.34;;;1.94;63.21
7309;BME280;3695;53.330;9.876;2023-12-04T04:03:21;100627.38;;;2.02;63.18
7309;BME280;3695;53.330;9.876;2023-12-04T04:05:49;100617.22;;;1.91;62.83
7309;BME280;3695;53.330;9.876;2023-12-04T04:08:15;100623.66;;;1.83;63.32
7309;BME280;3695;53.330;9.876;2023-12-04T04:10:42;100612.63;;;2.01;63.58
7309;BME280;3695;53.330;9.876;2023-12-04T04:13:09;100610.50;;;2.25;63.11
7309;BME280;3695;53.330;9.876;2023-12-04T04:15:35;100607.00;;;2.25;62.76
7309;BME280;3695;53.330;9.876;2023-12-04T04:18:02;100605.31;;;2.25;62.77
7309;BME280;3695;53.330;9.876;2023-12-04T04:20:28;100609.34;;;2.20;62.79
7309;BME280;3695;53.330;9.876;2023-12-04T04:22:56;100605.31;;;2.25;62.89
7309;BME280;3695;53.330;9.876;2023-12-04T04:25:23;100608.38;;;2.18;62.92
7309;BME280;3695;53.330;9.876;2023-12-04T04:27:49;100602.72;;;2.25;62.90
7309;BME280;3695;53.330;9.876;2023-12-04T04:30:16;100590.72;;;2.43;62.76
7309;BME280;3695;53.330;9.876;2023-12-04T04:32:42;100594.03;;;2.25;62.72
7309;BME280;3695;53.330;9.876;2023-12-04T04:35:09;100585.41;;;2.40;62.56
7309;BME280;3695;53.330;9.876;2023-12-04T04:37:36;100587.34;;;2.28;62.66
7309;BME280;3695;53.330;9.876;2023-12-04T04:40:05;100586.28;;;2.41;63.04
7309;BME280;3695;53.330;9.876;2023-12-04T04:42:32;100583.03;;;2.45;62.83
7309;BME280;3695;53.330;9.876;2023-12-04T04:44:58;100576.63;;;2.38;63.18
7309;BME280;3695;53.330;9.876;2023-12-04T04:47:25;100576.31;;;2.49;63.16
7309;BME280;3695;53.330;9.876;2023-12-04T04:49:51;100571.91;;;2.47;63.39
7309;BME280;3695;53.330;9.876;2023-12-04T04:52:18;100573.88;;;2.52;63.45
7309;BME280;3695;53.330;9.876;2023-12-04T04:54:44;100568.53;;;2.65;63.29
7309;BME280;3695;53.330;9.876;2023-12-04T04:57:12;100564.78;;;2.43;63.02
7309;BME280;3695;53.330;9.876;2023-12-04T04:59:38;100571.59;;;2.41;63.32
7309;BME280;3695;53.330;9.876;2023-12-04T05:02:05;100569.19;;;2.44;63.55
7309;BME280;3695;53.330;9.876;2023-12-04T05:04:31;100568.06;;;2.39;64.04
7309;BME280;3695;53.330;9.876;2023-12-04T05:06:58;100570.28;;;2.66;63.98
7309;BME280;3695;53.330;9.876;2023-12-04T05:09:25;100566.78;;;2.65;63.72
7309;BME280;3695;53.330;9.876;2023-12-04T05:11:51;100569.34;;;2.64;63.59
7309;BME280;3695;53.330;9.876;2023-12-04T05:14:19;100557.97;;;2.62;63.93
7309;BME280;3695;53.330;9.876;2023-12-04T05:16:46;100559.53;;;2.58;63.96
7309;BME280;3695;53.330;9.876;2023-12-04T05:19:12;100556.50;;;2.67;64.00
7309;BME280;3695;53.330;9.876;2023-12-04T05:21:39;100553.34;;;2.72;64.12
7309;BME280;3695;53.330;9.876;2023-12-04T05:24:05;100556.66;;;2.86;64.28
7309;BME280;3695;53.330;9.876;2023-12-04T05:26:32;100557.16;;;2.79;64.38
7309;BME280;3695;53.330;9.876;2023-12-04T05:28:59;100547.44;;;2.75;64.27
7309;BME280;3695;53.330;9.876;2023-12-04T05:31:26;100544.84;;;2.75;64.70
7309;BME280;3695;53.330;9.876;2023-12-04T05:33:53;100545.63;;;2.74;64.72
7309;BME280;3695;53.330;9.876;2023-12-04T05:36:19;100544.53;;;2.69;64.85
7309;BME280;3695;53.330;9.876;2023-12-04T05:38:46;100539.47;;;2.72;65.20
7309;BME280;3695;53.330;9.876;2023-12-04T05:41:13;100537.22;;;2.62;64.75
7309;BME280;3695;53.330;9.876;2023-12-04T05:43:39;100533.44;;;2.55;64.93
7309;BME280;3695;53.330;9.876;2023-12-04T05:46:06;100526.19;;;2.66;65.15
7309;BME280;3695;53.330;9.876;2023-12-04T05:48:34;100527.38;;;2.89;65.16
7309;BME280;3695;53.330;9.876;2023-12-04T05:51:00;100527.59;;;2.93;64.93
7309;BME280;3695;53.330;9.876;2023-12-04T05:53:27;100526.50;;;2.88;64.87
7309;BME280;3695;53.330;9.876;2023-12-04T05:55:54;100518.69;;;2.88;64.67
7309;BME280;3695;53.330;9.876;2023-12-04T05:58:20;100513.34;;;2.85;65.07
7309;BME280;3695;53.330;9.876;2023-12-04T06:00:47;100511.25;;;3.12;64.84
7309;BME280;3695;53.330;9.876;2023-12-04T06:03:13;100514.31;;;2.87;64.99
7309;BME280;3695;53.330;9.876;2023-12-04T06:05:41;100505.66;;;3.04;65.15
7309;BME280;3695;53.330;9.876;2023-12-04T06:08:08;100500.03;;;2.95;65.11
7309;BME280;3695;53.330;9.876;2023-12-04T06:10:34;100506.97;;;2.96;65.25
7309;BME280;3695;53.330;9.876;2023-12-04T06:13:01;100501.19;;;2.84;65.35
7309;BME280;3695;53.330;9.876;2023-12-04T06:15:26;100496.28;;;2.90;65.51
7309;BME280;3695;53.330;9.876;2023-12-04T06:17:53;100496.53;;;2.95;65.60
7309;BME280;3695;53.330;9.876;2023-12-04T06:20:19;100499.50;;;3.02;65.30
7309;BME280;3695;53.330;9.876;2023-12-04T06:22:48;100496.47;;;2.93;65.57
7309;BME280;3695;53.330;9.876;2023-12-04T06:25:15;100500.56;;;3.06;65.57
7309;BME280;3695;53.330;9.876;2023-12-04T06:27:42;100488.31;;;3.03;65.39
7309;BME280;3695;53.330;9.876;2023-12-04T06:30:10;100490.16;;;3.06;65.48
7309;BME280;3695;53.330;9.876;2023-12-04T06:32:37;100485.56;;;3.00;65.56
7309;BME280;3695;53.330;9.876;2023-12-04T06:35:05;100483.19;;;3.05;65.73
7309;BME280;3695;53.330;9.876;2023-12-04T06:37:32;100478.97;;;3.07;65.79
7309;BME280;3695;53.330;9.876;2023-12-04T06:40:00;100478.31;;;3.11;65.72
7309;BME280;3695;53.330;9.876;2023-12-04T06:42:28;100483.94;;;3.20;65.95
7309;BME280;3695;53.330;9.876;2023-12-04T06:44:55;100476.72;;;2.97;65.94
7309;BME280;3695;53.330;9.876;2023-12-04T06:47:23;100477.03;;;3.03;65.92
7309;BME280;3695;53.330;9.876;2023-12-04T06:49:49;100479.41;;;3.16;65.64
7309;BME280;3695;53.330;9.876;2023-12-04T06:52:16;100479.63;;;3.20;66.05
7309;BME280;3695;53.330;9.876;2023-12-04T06:54:42;100476.72;;;3.32;65.64
7309;BME280;3695;53.330;9.876;2023-12-04T06:57:10;100473.53;;;3.20;65.77
7309;BME280;3695;53.330;9.876;2023-12-04T06:59:40;100469.78;;;3.13;65.74
7309;BME280;3695;53.330;9.876;2023-12-04T07:02:06;100477.63;;;3.33;65.74
7309;BME280;3695;53.330;9.876;2023-12-04T07:04:33;100468.00;;;3.12;65.60
7309;BME280;3695;53.330;9.876;2023-12-04T07:06:59;100470.50;;;3.28;65.85
7309;BME280;3695;53.330;9.876;2023-12-04T07:09:30;100473.91;;;3.27;65.61
7309;BME280;3695;53.330;9.876;2023-12-04T07:11:57;100474.50;;;3.40;65.57
7309;BME280;3695;53.330;9.876;2023-12-04T07:14:25;100473.31;;;3.33;65.75
7309;BME280;3695;53.330;9.876;2023-12-04T07:16:52;100482.59;;;3.28;65.36
7309;BME280;3695;53.330;9.876;2023-12-04T07:19:18;100482.47;;;3.43;65.71
7309;BME280;3695;53.330;9.876;2023-12-04T07:21:45;100486.16;;;3.30;65.67
7309;BME280;3695;53.330;9.876;2023-12-04T07:24:11;100479.56;;;3.37;65.42
7309;BME280;3695;53.330;9.876;2023-12-04T07:26:38;100479.56;;;3.19;65.59
7309;BME280;3695;53.330;9.876;2023-12-04T07:29:05;100474.88;;;3.30;65.85
7309;BME280;3695;53.330;9.876;2023-12-04T07:31:32;100476.28;;;3.41;65.51
7309;BME280;3695;53.330;9.876;2023-12-04T07:33:59;100478.16;;;3.43;65.05
7309;BME280;3695;53.330;9.876;2023-12-04T07:36:27;100476.13;;;3.38;65.34
7309;BME280;3695;53.330;9.876;2023-12-04T07:38:54;100481.78;;;3.47;65.44
7309;BME280;3695;53.330;9.876;2023-12-04T07:41:20;100474.88;;;3.30;65.13
7309;BME280;3695;53.330;9.876;2023-12-04T07:43:47;100484.22;;;3.44;65.56
7309;BME280;3695;53.330;9.876;2023-12-04T07:46:13;100478.97;;;3.42;65.45
7309;BME280;3695;53.330;9.876;2023-12-04T07:48:42;100479.69;;;3.40;65.31
7309;BME280;3695;53.330;9.876;2023-12-04T07:51:09;100477.59;;;3.50;65.18
7309;BME280;3695;53.330;9.876;2023-12-04T07:53:35;100468.38;;;3.57;65.22
7309;BME280;3695;53.330;9.876;2023-12-04T07:56:02;100460.84;;;3.44;65.21
7309;BME280;3695;53.330;9.876;2023-12-04T07:58:29;100475.75;;;3.48;65.38
7309;BME280;3695;53.330;9.876;2023-12-04T08:00:56;100473.91;;;3.45;65.36
7309;BME280;3695;53.330;9.876;2023-12-04T08:03:23;100476.13;;;3.38;65.13
7309;BME280;3695;53.330;9.876;2023-12-04T08:05:51;100468.34;;;3.55;65.39
7309;BME280;3695;53.330;9.876;2023-12-04T08:08:18;100475.28;;;3.56;65.36
7309;BME280;3695;53.330;9.876;2023-12-04T08:10:44;100473.28;;;3.51;65.37
7309;BME280;3695;53.330;9.876;2023-12-04T08:13:11;100476.38;;;3.42;65.20
7309;BME280;3695;53.330;9.876;2023-12-04T08:15:37;100472.78;;;3.40;65.38
7309;BME280;3695;53.330;9.876;2023-12-04T08:18:04;100471.50;;;3.50;65.43
7309;BME280;3695;53.330;9.876;2023-12-04T08:20:31;100467.44;;;3.55;65.59
7309;BME280;3695;53.330;9.876;2023-12-04T08:22:59;100458.31;;;3.45;65.58
7309;BME280;3695;53.330;9.876;2023-12-04T08:25:26;100458.22;;;3.61;65.40
7309;BME280;3695;53.330;9.876;2023-12-04T08:27:52;100458.47;;;3.48;65.24
7309;BME280;3695;53.330;9.876;2023-12-04T08:30:19;100460.59;;;3.57;65.39
7309;BME280;3695;53.330;9.876;2023-12-04T08:32:46;100451.56;;;3.49;65.44
7309;BME280;3695;53.330;9.876;2023-12-04T08:35:12;100471.78;;;3.56;65.34
7309;BME280;3695;53.330;9.876;2023-12-04T08:37:39;100465.06;;;3.59;65.21
7309;BME280;3695;53.330;9.876;2023-12-04T08:40:08;100462.53;;;3.61;65.44
7309;BME280;3695;53.330;9.876;2023-12-04T08:42:35;100453.31;;;3.50;65.13
7309;BME280;3695;53.330;9.876;2023-12-04T08:45:02;100449.72;;;3.46;65.62
7309;BME280;3695;53.330;9.876;2023-12-04T08:47:31;100452.97;;;3.60;65.43
7309;BME280;3695;53.330;9.876;2023-12-04T08:49:59;100455.63;;;3.61;65.04
7309;BME280;3695;53.330;9.876;2023-12-04T08:52:26;100450.38;;;3.60;65.14
7309;BME280;3695;53.330;9.876;2023-12-04T08:54:53;100453.69;;;3.57;65.19
7309;BME280;3695;53.330;9.876;2023-12-04T08:57:21;100451.88;;;3.55;65.52
7309;BME280;3695;53.330;9.876;2023-12-04T08:59:48;100440.78;;;3.59;65.43
7309;BME280;3695;53.330;9.876;2023-12-04T09:02:15;100441.19;;;3.68;65.13
7309;BME280;3695;53.330;9.876;2023-12-04T09:04:41;100443.25;;;3.75;65.08
7309;BME280;3695;53.330;9.876;2023-12-04T09:07:08;100440.00;;;3.79;65.27
7309;BME280;3695;53.330;9.876;2023-12-04T09:09:35;100442.56;;;3.60;65.37
7309;BME280;3695;53.330;9.876;2023-12-04T09:12:01;100437.78;;;3.69;65.32
7309;BME280;3695;53.330;9.876;2023-12-04T09:14:29;100441.06;;;3.65;65.06
7309;BME280;3695;53.330;9.876;2023-12-04T09:16:56;100438.34;;;3.81;65.03
7309;BME280;3695;53.330;9.876;2023-12-04T09:19:22;100434.22;;;3.86;64.71
7309;BME280;3695;53.330;9.876;2023-12-04T09:21:49;100435.34;;;3.91;64.30
7309;BME280;3695;53.330;9.876;2023-12-04T09:24:15;100431.22;;;3.77;64.78
7309;BME280;3695;53.330;9.876;2023-12-04T09:26:42;100432.06;;;3.95;64.81
7309;BME280;3695;53.330;9.876;2023-12-04T09:29:11;100425.78;;;4.09;64.39
7309;BME280;3695;53.330;9.876;2023-12-04T09:31:39;100430.00;;;4.07;64.15
7309;BME280;3695;53.330;9.876;2023-12-04T09:34:05;100430.88;;;3.89;64.00
7309;BME280;3695;53.330;9.876;2023-12-04T09:36:33;100430.81;;;4.06;64.20
7309;BME280;3695;53.330;9.876;2023-12-04T09:39:00;100434.22;;;4.05;63.44
7309;BME280;3695;53.330;9.876;2023-12-04T09:41:26;100427.59;;;4.12;63.80
7309;BME280;3695;53.330;9.876;2023-12-04T09:43:54;100441.41;;;3.92;63.78
7309;BME280;3695;53.330;9.876;2023-12-04T09:46:21;100443.63;;;4.02;63.99
7309;BME280;3695;53.330;9.876;2023-12-04T09:48:50;100438.78;;;3.90;63.62
7309;BME280;3695;53.330;9.876;2023-12-04T09:51:18;100429.25;;;3.91;63.31
7309;BME280;3695;53.330;9.876;2023-12-04T09:53:46;100426.34;;;4.23;63.00
7309;BME280;3695;53.330;9.876;2023-12-04T09:56:14;100427.81;;;3.97;63.31
7309;BME280;3695;53.330;9.876;2023-12-04T09:58:43;100418.72;;;4.07;63.49
7309;BME280;3695;53.330;9.876;2023-12-04T10:01:11;100413.41;;;4.25;63.16
7309;BME280;3695;53.330;9.876;2023-12-04T10:03:39;100412.06;;;4.14;63.29
7309;BME280;3695;53.330;9.876;2023-12-04T10:06:08;100403.28;;;4.31;62.92
7309;BME280;3695;53.330;9.876;2023-12-04T10:08:35;100402.06;;;4.23;62.77
7309;BME280;3695;53.330;9.876;2023-12-04T10:11:02;100388.59;;;4.12;63.08
7309;BME280;3695;53.330;9.876;2023-12-04T10:13:28;100384.44;;;3.96;63.13
7309;BME280;3695;53.330;9.876;2023-12-04T10:15:55;100385.19;;;4.13;63.20
7309;BME280;3695;53.330;9.876;2023-12-04T10:18:25;100384.63;;;4.01;63.25
7309;BME280;3695;53.330;9.876;2023-12-04T10:20:53;100380.97;;;4.17;62.79
7309;BME280;3695;53.330;9.876;2023-12-04T10:23:22;100384.28;;;4.13;63.08
7309;BME280;3695;53.330;9.876;2023-12-04T10:25:49;100370.59;;;4.17;62.54
7309;BME280;3695;53.330;9.876;2023-12-04T10:28:17;100376.66;;;4.17;62.58
7309;BME280;3695;53.330;9.876;2023-12-04T10:30:44;100368.31;;;4.24;62.35
7309;BME280;3695;53.330;9.876;2023-12-04T10:33:11;100370.16;;;4.27;62.12
7309;BME280;3695;53.330;9.876;2023-12-04T10:35:39;100353.16;;;4.14;62.67
7309;BME280;3695;53.330;9.876;2023-12-04T10:38:07;100350.75;;;4.19;62.47
7309;BME280;3695;53.330;9.876;2023-12-04T10:40:35;100352.91;;;4.29;62.17
7309;BME280;3695;53.330;9.876;2023-12-04T10:43:14;100342.06;;;4.18;62.81
7309;BME280;3695;53.330;9.876;2023-12-04T10:45:42;100346.25;;;4.15;62.21
7309;BME280;3695;53.330;9.876;2023-12-04T10:48:11;100350.66;;;4.17;62.59
7309;BME280;3695;53.330;9.876;2023-12-04T10:50:39;100341.22;;;4.19;62.37
7309;BME280;3695;53.330;9.876;2023-12-04T10:53:06;100350.28;;;4.08;62.63
7309;BME280;3695;53.330;9.876;2023-12-04T10:55:35;100348.03;;;4.36;61.64
7309;BME280;3695;53.330;9.876;2023-12-04T10:58:05;100339.31;;;4.36;62.11
7309;BME280;3695;53.330;9.876;2023-12-04T11:00:33;100340.53;;;4.44;62.18
7309;BME280;3695;53.330;9.876;2023-12-04T11:03:03;100335.41;;;4.25;62.03
7309;BME280;3695;53.330;9.876;2023-12-04T11:05:32;100334.44;;;4.43;61.91
7309;BME280;3695;53.330;9.876;2023-12-04T11:08:02;100327.28;;;4.38;61.48
7309;BME280;3695;53.330;9.876;2023-12-04T11:10:31;100332.91;;;4.48;61.93
7309;BME280;3695;53.330;9.876;2023-12-04T11:13:04;100323.97;;;4.42;61.43
7309;BME280;3695;53.330;9.876;2023-12-04T11:15:35;100318.34;;;4.52;61.35
7309;BME280;3695;53.330;9.876;2023-12-04T11:18:04;100315.09;;;4.37;61.68
7309;BME280;3695;53.330;9.876;2023-12-04T11:20:37;100317.56;;;4.55;62.05
7309;BME280;3695;53.330;9.876;2023-12-04T11:23:06;100314.78;;;4.50;61.85
7309;BME280;3695;53.330;9.876;2023-12-04T11:25:33;100313.13;;;4.52;61.53
7309;BME280;3695;53.330;9.876;2023-12-04T11:28:03;100309.81;;;4.56;61.44
7309;BME280;3695;53.330;9.876;2023-12-04T11:30:30;100313.75;;;4.67;60.97
7309;BME280;3695;53.330;9.876;2023-12-04T11:32:59;100308.72;;;4.72;61.45
7309;BME280;3695;53.330;9.876;2023-12-04T11:35:26;100309.66;;;4.52;61.74
7309;BME280;3695;53.330;9.876;2023-12-04T11:37:52;100302.66;;;4.50;61.58
7309;BME280;3695;53.330;9.876;2023-12-04T11:40:19;100304.44;;;4.52;62.01
7309;BME280;3695;53.330;9.876;2023-12-04T11:42:46;100301.84;;;4.52;61.73
7309;BME280;3695;53.330;9.876;2023-12-04T11:45:20;100295.03;;;4.34;61.97
7309;BME280;3695;53.330;9.876;2023-12-04T11:47:51;100295.56;;;4.26;61.71
7309;BME280;3695;53.330;9.876;2023-12-04T11:50:18;100295.59;;;4.48;62.54
7309;BME280;3695;53.330;9.876;2023-12-04T11:52:46;100291.53;;;4.55;62.35
7309;BME280;3695;53.330;9.876;2023-12-04T11:55:16;100283.50;;;4.48;61.46
7309;BME280;3695;53.330;9.876;2023-12-04T11:57:43;100286.34;;;4.55;61.52
7309;BME280;3695;53.330;9.876;2023-12-04T12:00:13;100282.25;;;4.61;62.00
7309;BME280;3695;53.330;9.876;2023-12-04T12:02:48;100278.34;;;4.50;61.70
7309;BME280;3695;53.330;9.876;2023-12-04T12:05:26;100280.00;;;4.48;62.21
7309;BME280;3695;53.330;9.876;2023-12-04T12:07:53;100273.63;;;4.62;61.80
7309;BME280;3695;53.330;9.876;2023-12-04T12:10:21;100271.97;;;4.64;62.04
7309;BME280;3695;53.330;9.876;2023-12-04T12:12:47;100266.31;;;4.74;61.82
7309;BME280;3695;53.330;9.876;2023-12-04T12:15:14;100268.38;;;4.61;61.91
7309;BME280;3695;53.330;9.876;2023-12-04T12:17:42;100256.25;;;4.61;61.74
7309;BME280;3695;53.330;9.876;2023-12-04T12:20:11;100259.91;;;4.66;61.23
7309;BME280;3695;53.330;9.876;2023-12-04T12:22:38;100251.28;;;4.67;61.43
7309;BME280;3695;53.330;9.876;2023-12-04T12:25:07;100252.69;;;4.59;61.22
7309;BME280;3695;53.330;9.876;2023-12-04T12:27:34;100245.00;;;4.62;61.79
7309;BME280;3695;53.330;9.876;2023-12-04T12:30:01;100244.78;;;4.56;61.93
7309;BME280;3695;53.330;9.876;2023-12-04T12:32:29;100234.13;;;4.72;61.19
7309;BME280;3695;53.330;9.876;2023-12-04T12:34:57;100232.56;;;4.77;61.39
7309;BME280;3695;53.330;9.876;2023-12-04T12:37:23;100221.56;;;4.84;61.38
7309;BME280;3695;53.330;9.876;2023-12-04T12:39:50;100217.19;;;4.83;61.70
7309;BME280;3695;53.330;9.876;2023-12-04T12:42:21;100210.50;;;4.90;60.81
7309;BME280;3695;53.330;9.876;2023-12-04T12:44:47;100210.34;;;4.85;60.84
7309;BME280;3695;53.330;9.876;2023-12-04T12:47:14;100203.06;;;4.55;61.58
7309;BME280;3695;53.330;9.876;2023-12-04T12:49:41;100196.41;;;4.61;61.50
7309;BME280;3695;53.330;9.876;2023-12-04T12:52:09;100193.56;;;4.55;61.23
7309;BME280;3695;53.330;9.876;2023-12-04T12:54:36;100185.69;;;4.76;61.94
7309;BME280;3695;53.330;9.876;2023-12-04T12:57:03;100185.56;;;4.73;61.27
7309;BME280;3695;53.330;9.876;2023-12-04T12:59:30;100184.44;;;4.66;60.82
7309;BME280;3695;53.330;9.876;2023-12-04T13:01:58;100175.00;;;4.68;61.03
7309;BME280;3695;53.330;9.876;2023-12-04T13:04:25;100177.91;;;4.77;61.41
7309;BME280;3695;53.330;9.876;2023-12-04T13:06:52;100176.53;;;4.63;60.86
7309;BME280;3695;53.330;9.876;2023-12-04T13:09:20;100177.66;;;4.70;61.56
7309;BME280;3695;53.330;9.876;2023-12-04T13:11:47;100169.47;;;4.61;61.23
7309;BME280;3695;53.330;9.876;2023-12-04T13:14:14;100170.16;;;4.79;61.24
7309;BME280;3695;53.330;9.876;2023-12-04T13:16:40;100163.41;;;4.84;61.18
7309;BME280;3695;53.330;9.876;2023-12-04T13:19:07;100159.47;;;4.71;61.26
7309;BME280;3695;53.330;9.876;2023-12-04T13:21:33;100161.59;;;4.81;61.05